Time;durP1;ratioP1;P1;durP2;ratioP2;P2;SDS_P1;SDS_P2;PMS_P1;PMS_P2;Temp;Humidity;BMP_temperature;BMP_pressure;BME280_temperature;BME280_humidity;BME280_pressure;Samples;Min_cycle;Max_cycle;Signal;HPM_P1;HPM_P2
2021/11/24 05:54:50;;;;;;;15.10;8.82;;;-1.00;99.90;;;;;;5802555;23;20918;-78
2021/11/24 05:57:17;;;;;;;13.18;7.53;;;-1.00;99.90;;;;;;4996178;28;20129;-80
2021/11/24 05:59:44;;;;;;;14.07;8.18;;;-1.00;99.90;;;;;;4995119;28;20057;-79
2021/11/24 06:02:11;;;;;;;14.82;7.95;;;-1.00;99.90;;;;;;4997865;28;20109;-79
2021/11/24 06:04:38;;;;;;;14.30;7.68;;;-1.00;99.90;;;;;;4977504;28;20129;-79
2021/11/24 06:07:05;;;;;;;15.98;8.20;;;-1.00;99.90;;;;;;4991929;28;20550;-80
2021/11/24 06:09:32;;;;;;;15.55;8.32;;;-1.00;99.80;;;;;;4995115;28;20066;-79
2021/11/24 06:12:01;;;;;;;12.70;8.27;;;-1.00;99.90;;;;;;4992147;28;20133;-78
2021/11/24 06:14:28;;;;;;;12.63;7.55;;;-1.00;99.80;;;;;;4992481;28;20130;-79
2021/11/24 06:16:55;;;;;;;14.20;7.72;;;-1.00;99.80;;;;;;4996524;28;20125;-76
2021/11/24 06:19:22;;;;;;;13.43;8.05;;;-1.00;99.80;;;;;;4998407;28;20046;-76
2021/11/24 06:21:49;;;;;;;13.18;7.57;;;-1.00;99.60;;;;;;4998223;28;20150;-76
2021/11/24 06:24:16;;;;;;;13.52;7.70;;;-1.00;99.70;;;;;;4996808;28;20579;-77
2021/11/24 06:26:43;;;;;;;12.52;7.78;;;-1.10;99.60;;;;;;4998535;28;20133;-77
2021/11/24 06:29:11;;;;;;;13.18;7.60;;;-1.10;99.70;;;;;;4996702;28;20046;-78
2021/11/24 06:31:38;;;;;;;14.23;7.47;;;-1.20;99.70;;;;;;4997879;28;20134;-79
2021/11/24 06:34:05;;;;;;;12.75;7.78;;;-1.20;99.30;;;;;;4996011;28;20042;-77
2021/11/24 06:36:33;;;;;;;13.63;8.30;;;-1.20;99.30;;;;;;4995206;28;20125;-80
2021/11/24 06:39:00;;;;;;;12.23;7.65;;;-1.30;99.50;;;;;;4992982;28;20145;-78
2021/11/24 06:41:27;;;;;;;15.25;8.30;;;-1.30;99.60;;;;;;4993407;28;20137;-78
2021/11/24 06:43:54;;;;;;;12.38;7.95;;;-1.30;99.60;;;;;;4993450;28;20076;-80
2021/11/24 06:46:23;;;;;;;13.18;7.72;;;-1.30;99.80;;;;;;4990017;28;20042;-79
2021/11/24 06:48:50;;;;;;;12.60;7.55;;;-1.30;99.90;;;;;;4993602;28;20125;-77
2021/11/24 06:51:17;;;;;;;12.40;7.43;;;-1.30;99.90;;;;;;4993784;28;20133;-78
2021/11/24 06:53:45;;;;;;;13.00;7.63;;;-1.30;99.90;;;;;;4995019;28;20132;-78
2021/11/24 06:56:12;;;;;;;13.18;7.55;;;-1.30;99.90;;;;;;4994328;28;20897;-77
2021/11/24 06:58:39;;;;;;;14.63;7.90;;;-1.30;99.90;;;;;;4995616;28;20082;-77
2021/11/24 07:01:06;;;;;;;13.40;7.85;;;-1.20;99.90;;;;;;4995766;28;20054;-78
2021/11/24 07:03:35;;;;;;;12.80;7.78;;;-1.20;99.90;;;;;;4994542;28;20142;-78
2021/11/24 07:06:02;;;;;;;12.93;8.13;;;-1.20;99.90;;;;;;4977494;28;20559;-77
2021/11/24 07:08:29;;;;;;;16.38;8.52;;;-1.20;99.90;;;;;;4996035;28;20070;-76
2021/11/24 07:10:56;;;;;;;16.70;8.68;;;-1.20;99.90;;;;;;4995842;28;20471;-76
2021/11/24 07:13:23;;;;;;;14.23;8.52;;;-1.20;99.90;;;;;;4995381;28;20141;-76
2021/11/24 07:15:50;;;;;;;13.18;7.63;;;-1.20;99.90;;;;;;4994770;28;20137;-77
2021/11/24 07:18:17;;;;;;;14.15;8.15;;;-1.20;99.90;;;;;;4995451;28;20074;-78
2021/11/24 07:20:45;;;;;;;13.43;7.93;;;-1.20;99.90;;;;;;4993971;28;20470;-79
2021/11/24 07:23:12;;;;;;;14.52;8.30;;;-1.20;99.90;;;;;;4993646;28;20118;-78
2021/11/24 07:25:40;;;;;;;15.23;8.18;;;-1.20;99.90;;;;;;4994438;28;20137;-78
2021/11/24 07:28:07;;;;;;;15.43;7.93;;;-1.10;99.90;;;;;;4994223;28;20436;-79
2021/11/24 07:30:34;;;;;;;14.60;8.55;;;-1.10;99.90;;;;;;4994320;28;20054;-75
2021/11/24 07:33:02;;;;;;;14.20;8.40;;;-1.10;99.90;;;;;;4997224;28;20050;-76
2021/11/24 07:35:32;;;;;;;12.80;8.18;;;-1.10;99.90;;;;;;4993843;28;20042;-76
2021/11/24 07:38:00;;;;;;;14.60;8.27;;;-1.00;99.90;;;;;;4994365;28;20050;-75
2021/11/24 07:40:27;;;;;;;14.68;8.35;;;-1.00;99.90;;;;;;4994307;28;20106;-75
2021/11/24 07:42:54;;;;;;;15.00;8.05;;;-0.90;99.90;;;;;;4994229;28;20508;-78
2021/11/24 07:45:22;;;;;;;14.82;8.80;;;-0.90;99.90;;;;;;4994012;28;20129;-76
2021/11/24 07:47:49;;;;;;;16.92;8.50;;;-0.90;99.90;;;;;;4994335;28;20470;-75
2021/11/24 07:50:16;;;;;;;14.38;8.48;;;-0.90;99.90;;;;;;4994174;28;20125;-75
2021/11/24 07:52:43;;;;;;;12.82;8.30;;;-0.90;99.70;;;;;;4991521;28;20053;-77
2021/11/24 07:55:12;;;;;;;12.82;8.25;;;-0.90;99.80;;;;;;4991616;28;20058;-76
2021/11/24 07:57:39;;;;;;;14.75;8.07;;;-0.90;99.90;;;;;;4991834;28;20054;-78
2021/11/24 08:00:08;;;;;;;15.85;8.10;;;-0.90;99.90;;;;;;4993459;28;20133;-82
2021/11/24 08:02:35;;;;;;;14.30;8.00;;;-0.90;99.90;;;;;;4990914;28;20472;-79
2021/11/24 08:05:04;;;;;;;13.90;8.43;;;-0.90;99.90;;;;;;4991267;28;20046;-79
2021/11/24 08:07:32;;;;;;;14.88;8.43;;;-0.80;99.90;;;;;;4991984;28;20038;-77
2021/11/24 08:09:59;;;;;;;13.65;8.35;;;-0.80;99.90;;;;;;4991590;28;20535;-80
2021/11/24 08:12:27;;;;;;;15.20;9.00;;;-0.70;99.90;;;;;;4996324;28;20467;-81
2021/11/24 08:14:54;;;;;;;16.75;8.60;;;-0.70;99.90;;;;;;4992287;28;20246;-82
2021/11/24 08:17:21;;;;;;;14.90;8.75;;;-0.70;99.90;;;;;;4992468;28;20485;-82
2021/11/24 08:19:49;;;;;;;14.18;9.30;;;-0.70;99.90;;;;;;4993346;28;20141;-81
2021/11/24 08:22:16;;;;;;;15.55;8.88;;;-0.70;99.90;;;;;;4992976;28;20089;-81
2021/11/24 08:24:43;;;;;;;17.00;8.90;;;-0.70;99.90;;;;;;4993359;28;20133;-81
2021/11/24 08:27:10;;;;;;;17.52;10.10;;;-0.70;99.90;;;;;;4991878;28;20133;-78
2021/11/24 08:29:39;;;;;;;16.35;9.00;;;-0.70;99.90;;;;;;4993198;28;20192;-76
2021/11/24 08:32:07;;;;;;;15.80;9.15;;;-0.70;99.90;;;;;;4991907;28;20138;-80
2021/11/24 08:34:35;;;;;;;16.30;9.10;;;-0.60;99.90;;;;;;4990398;28;20214;-79
2021/11/24 08:37:02;;;;;;;16.30;9.32;;;-0.50;99.90;;;;;;4991311;28;20469;-80
2021/11/24 08:39:29;;;;;;;16.33;9.23;;;-0.40;99.90;;;;;;4991063;28;20121;-80
2021/11/24 08:41:57;;;;;;;16.92;9.10;;;-0.30;99.90;;;;;;4990244;28;20587;-79
2021/11/24 08:44:24;;;;;;;15.45;9.40;;;-0.30;99.90;;;;;;4991058;28;20089;-79
2021/11/24 08:46:52;;;;;;;20.15;10.38;;;-0.20;99.90;;;;;;4990833;28;20054;-78
2021/11/24 08:49:19;;;;;;;19.15;10.57;;;-0.10;99.90;;;;;;4991183;28;20145;-79
2021/11/24 08:51:46;;;;;;;16.98;9.98;;;-0.10;99.90;;;;;;4991155;28;20129;-79
2021/11/24 08:54:14;;;;;;;17.65;9.48;;;0.00;99.90;;;;;;4991058;28;20110;-80
2021/11/24 08:56:43;;;;;;;17.60;10.40;;;0.00;99.90;;;;;;4991016;28;20137;-80
2021/11/24 08:59:10;;;;;;;16.67;9.93;;;0.10;99.90;;;;;;4990781;28;20046;-78
2021/11/24 09:01:39;;;;;;;16.83;10.20;;;0.10;99.90;;;;;;4989991;28;20133;-78
2021/11/24 09:04:07;;;;;;;18.02;10.68;;;0.10;99.90;;;;;;4991276;28;20150;-80
2021/11/24 09:06:36;;;;;;;18.92;10.88;;;0.20;99.90;;;;;;4991006;28;20141;-76
2021/11/24 09:09:05;;;;;;;17.35;10.75;;;0.30;99.90;;;;;;4990486;28;20116;-78
2021/11/24 09:11:33;;;;;;;18.88;11.45;;;0.30;99.90;;;;;;4991136;28;20164;-79
2021/11/24 09:14:00;;;;;;;20.20;10.90;;;0.40;99.90;;;;;;4990486;28;20142;-79
2021/11/24 09:16:27;;;;;;;19.85;11.75;;;0.40;99.90;;;;;;4991817;28;20579;-76
2021/11/24 09:18:54;;;;;;;19.00;12.13;;;0.50;99.90;;;;;;4995008;28;20141;-76
2021/11/24 09:21:23;;;;;;;19.50;11.82;;;0.60;99.90;;;;;;4991918;28;20057;-75
2021/11/24 09:23:51;;;;;;;18.55;12.07;;;0.60;99.90;;;;;;4991288;28;20399;-80
2021/11/24 09:26:25;;;;;;;21.60;12.50;;;0.70;99.90;;;;;;4992846;28;20141;-78
2021/11/24 09:28:53;;;;;;;21.27;12.05;;;0.70;99.90;;;;;;4992007;28;20050;-79
2021/11/24 09:31:20;;;;;;;23.58;13.23;;;0.80;99.90;;;;;;4973381;28;20077;-79
2021/11/24 09:33:47;;;;;;;20.65;11.98;;;0.90;99.90;;;;;;4971556;28;20137;-79
2021/11/24 09:36:14;;;;;;;22.98;12.68;;;0.90;99.90;;;;;;4990006;28;20050;-81
2021/11/24 09:38:43;;;;;;;21.85;11.95;;;1.00;99.90;;;;;;4989946;28;20611;-78
2021/11/24 09:41:13;;;;;;;22.08;12.73;;;1.10;99.90;;;;;;4988778;28;20134;-78
2021/11/24 09:43:48;;;;;;;25.08;14.52;;;1.10;99.90;;;;;;4986871;28;20089;-78
2021/11/24 09:46:17;;;;;;;22.55;13.18;;;1.20;99.90;;;;;;4988390;28;20153;-80
2021/11/24 09:48:46;;;;;;;23.38;13.35;;;1.20;99.90;;;;;;4988557;28;20137;-79
2021/11/24 09:51:14;;;;;;;20.48;12.23;;;1.30;99.90;;;;;;4990497;28;20157;-79
2021/11/24 09:53:46;;;;;;;22.45;12.95;;;1.30;99.90;;;;;;4988687;28;20089;-79
2021/11/24 09:56:14;;;;;;;22.73;13.25;;;1.40;99.90;;;;;;4988920;28;20096;-78
2021/11/24 09:58:41;;;;;;;21.65;12.55;;;1.40;99.90;;;;;;4989475;28;20134;-80
2021/11/24 10:01:08;;;;;;;23.27;13.20;;;1.50;99.90;;;;;;4988959;28;20129;-78
2021/11/24 10:03:35;;;;;;;22.55;14.07;;;1.50;99.90;;;;;;4988215;28;20065;-78
2021/11/24 10:06:03;;;;;;;22.92;13.68;;;1.50;99.90;;;;;;4988322;28;20475;-77
2021/11/24 10:08:32;;;;;;;21.95;13.15;;;1.50;99.90;;;;;;4988019;28;20050;-78
2021/11/24 10:11:01;;;;;;;22.83;13.15;;;1.60;99.90;;;;;;4969411;28;20047;-79
2021/11/24 10:13:29;;;;;;;24.95;13.80;;;1.70;99.90;;;;;;4973770;28;20153;-78
2021/11/24 10:15:57;;;;;;;22.58;13.13;;;1.70;99.90;;;;;;4988588;28;20160;-78
2021/11/24 10:18:28;;;;;;;22.77;13.45;;;1.80;99.90;;;;;;4989283;28;20054;-79
2021/11/24 10:21:02;;;;;;;25.10;13.60;;;1.80;99.90;;;;;;4985844;28;20414;-77
2021/11/24 10:23:33;;;;;;;23.80;13.80;;;1.90;99.90;;;;;;4987171;28;20068;-79
2021/11/24 10:26:23;;;;;;;22.50;13.35;;;1.90;99.90;;;;;;4987853;28;20477;-79
2021/11/24 10:28:55;;;;;;;24.10;13.55;;;2.00;99.90;;;;;;4987744;28;20054;-79
2021/11/24 10:31:37;;;;;;;22.52;13.07;;;2.10;99.90;;;;;;4987466;28;20423;-77
2021/11/24 10:34:15;;;;;;;23.60;13.57;;;2.10;99.90;;;;;;4986988;28;20078;-79
2021/11/24 10:37:04;;;;;;;23.58;13.52;;;2.20;99.90;;;;;;4987811;28;20122;-79
2021/11/24 10:39:35;;;;;;;23.45;13.32;;;2.30;99.90;;;;;;4989618;28;20054;-78
2021/11/24 10:42:12;;;;;;;23.92;13.75;;;2.40;99.90;;;;;;4991813;28;20563;-79
2021/11/24 10:44:43;;;;;;;24.75;13.60;;;2.40;99.90;;;;;;4991497;28;20419;-81
2021/11/24 10:47:12;;;;;;;23.67;13.07;;;2.50;99.90;;;;;;4991222;28;20133;-77
2021/11/24 10:49:44;;;;;;;24.23;14.25;;;2.60;99.90;;;;;;4991979;28;20109;-78
2021/11/24 10:52:16;;;;;;;22.17;13.35;;;2.70;99.90;;;;;;4991778;28;20483;-78
2021/11/24 10:54:45;;;;;;;24.52;13.45;;;2.80;99.90;;;;;;4988911;28;20153;-78
2021/11/24 10:57:14;;;;;;;24.58;13.45;;;2.90;99.90;;;;;;4991605;28;20946;-79
2021/11/24 10:59:45;;;;;;;25.48;13.70;;;2.90;99.90;;;;;;4986799;28;20050;-81
2021/11/24 11:02:33;;;;;;;24.15;12.85;;;3.00;99.90;;;;;;4993565;28;20089;-79
2021/11/24 11:05:08;;;;;;;23.33;12.98;;;3.10;99.90;;;;;;4990050;28;20045;-81
2021/11/24 11:07:39;;;;;;;23.50;13.00;;;3.20;99.90;;;;;;4991568;28;20216;-78
2021/11/24 11:10:18;;;;;;;20.90;12.13;;;3.30;99.90;;;;;;4991399;28;20145;-79
2021/11/24 11:12:52;;;;;;;25.70;13.52;;;3.40;99.90;;;;;;4990563;28;20129;-79
2021/11/24 11:15:33;;;;;;;23.58;12.95;;;3.50;99.90;;;;;;4987716;28;20113;-78
2021/11/24 11:18:12;;;;;;;23.90;13.10;;;3.60;99.90;;;;;;4991055;28;20137;-80
2021/11/24 11:20:43;;;;;;;24.45;13.77;;;3.70;99.90;;;;;;4991109;28;20594;-80
2021/11/24 11:23:18;;;;;;;25.05;12.30;;;3.80;99.90;;;;;;4991494;28;20085;-80
2021/11/24 11:25:49;;;;;;;24.27;13.00;;;3.80;99.90;;;;;;4985657;28;20135;-80
2021/11/24 11:28:20;;;;;;;22.10;12.80;;;3.90;99.90;;;;;;4987284;28;20157;-80
2021/11/24 11:30:49;;;;;;;22.90;12.73;;;4.00;99.90;;;;;;4991671;28;20096;-80
2021/11/24 11:33:19;;;;;;;23.13;12.77;;;4.10;99.90;;;;;;4991298;28;20473;-79
2021/11/24 11:35:48;;;;;;;23.58;12.55;;;4.10;99.90;;;;;;4992300;28;20129;-78
2021/11/24 11:38:18;;;;;;;21.90;12.43;;;4.20;99.90;;;;;;4991598;28;20133;-80
2021/11/24 11:40:48;;;;;;;21.98;12.27;;;4.30;99.90;;;;;;4991431;28;20242;-79
2021/11/24 11:43:16;;;;;;;23.90;12.48;;;4.50;99.80;;;;;;4991141;28;20096;-80
2021/11/24 11:45:44;;;;;;;21.60;12.27;;;4.60;99.50;;;;;;4991508;28;20129;-79
2021/11/24 11:48:11;;;;;;;22.30;11.98;;;4.70;99.00;;;;;;4991793;28;20056;-81
2021/11/24 11:50:54;;;;;;;22.40;12.07;;;4.80;98.90;;;;;;4991563;28;20110;-79
2021/11/24 11:53:26;;;;;;;23.30;12.07;;;4.90;99.90;;;;;;4991414;28;20137;-79
2021/11/24 11:56:18;;;;;;;22.92;11.68;;;5.00;99.90;;;;;;4989933;28;20385;-80
2021/11/24 11:58:57;;;;;;;22.65;12.43;;;5.10;99.90;;;;;;4990936;28;20133;-79
2021/11/24 12:01:28;;;;;;;30.73;14.48;;;5.20;99.90;;;;;;4989966;28;20086;-79
2021/11/24 12:03:59;;;;;;;23.33;12.13;;;5.20;99.90;;;;;;4990247;28;20050;-81
2021/11/24 12:06:28;;;;;;;19.98;11.38;;;5.30;99.90;;;;;;4985166;28;21375;-80
2021/11/24 12:09:28;;;;;;;21.58;11.43;;;;;;;;;;4991303;28;20078;-81
2021/11/24 12:12:24;;;;;;;17.92;9.88;;;5.90;99.90;;;;;;4988395;28;20413;-79
2021/11/24 12:15:15;;;;;;;18.75;10.38;;;5.60;99.90;;;;;;4990562;28;20082;-80
2021/11/24 12:18:09;;;;;;;18.08;10.02;;;5.70;99.90;;;;;;4988199;28;20050;-79
2021/11/24 12:20:45;;;;;;;19.83;10.65;;;5.70;99.90;;;;;;4984418;28;20050;-79
2021/11/24 12:23:25;;;;;;;19.15;10.15;;;5.90;99.90;;;;;;4990732;28;20082;-79
2021/11/24 12:25:57;;;;;;;19.17;9.80;;;6.20;99.90;;;;;;4991196;28;20526;-80
2021/11/24 12:28:26;;;;;;;16.88;9.45;;;;;;;;;;4990151;28;20795;-78
2021/11/24 12:31:04;;;;;;;18.02;9.43;;;6.60;93.50;;;;;;4978257;28;20496;-80
2021/11/24 12:33:35;;;;;;;17.60;9.85;;;6.60;93.70;;;;;;4972573;28;20051;-80
2021/11/24 12:36:09;;;;;;;17.88;9.55;;;6.70;93.30;;;;;;4983920;28;20674;-79
2021/11/24 12:38:40;;;;;;;17.50;9.32;;;6.80;93.10;;;;;;4991728;28;20468;-77
2021/11/24 12:41:10;;;;;;;18.08;9.48;;;7.00;93.00;;;;;;4992452;28;20468;-80
2021/11/24 12:43:41;;;;;;;16.13;8.98;;;7.20;92.50;;;;;;4991156;28;20149;-76
2021/11/24 12:46:20;;;;;;;15.57;9.07;;;7.40;92.10;;;;;;4991667;28;20061;-81
2021/11/24 12:48:51;;;;;;;15.52;8.52;;;7.60;91.20;;;;;;4992132;28;20051;-77
2021/11/24 12:51:29;;;;;;;16.67;9.30;;;7.90;90.70;;;;;;4990670;28;20050;-78
2021/11/24 12:54:02;;;;;;;16.60;9.52;;;8.20;90.40;;;;;;4990542;28;20128;-78
2021/11/24 12:56:31;;;;;;;14.25;8.52;;;8.70;89.50;;;;;;4990835;28;20056;-81
2021/11/24 12:59:01;;;;;;;15.05;8.82;;;9.30;87.30;;;;;;4988921;28;20507;-77
2021/11/24 13:01:35;;;;;;;15.32;8.95;;;10.30;82.50;;;;;;4988753;28;20093;-77
2021/11/24 13:04:09;;;;;;;13.63;8.20;;;12.10;74.20;;;;;;4990259;28;20145;-79
2021/11/24 13:06:39;;;;;;;14.02;9.07;;;14.10;64.40;;;;;;4989717;28;20167;-79
2021/11/24 13:09:16;;;;;;;14.52;9.05;;;16.00;57.30;;;;;;4989877;28;20157;-80
2021/11/24 13:11:53;;;;;;;13.75;8.73;;;17.40;51.90;;;;;;4987201;28;20070;-76
2021/11/24 13:14:25;;;;;;;14.85;8.88;;;18.60;47.80;;;;;;4990197;28;20133;-78
2021/11/24 13:17:11;;;;;;;14.45;8.68;;;19.30;45.20;;;;;;4989261;28;20047;-79
2021/11/24 13:19:43;;;;;;;13.50;8.70;;;19.80;43.60;;;;;;4989502;28;20057;-78
2021/11/24 13:22:13;;;;;;;14.35;8.85;;;19.90;42.90;;;;;;4988926;28;20057;-76
2021/11/24 13:24:42;;;;;;;13.32;8.52;;;20.10;42.20;;;;;;4989026;28;20491;-78
2021/11/24 13:27:10;;;;;;;13.13;8.50;;;20.10;41.80;;;;;;4990128;28;20291;-80
2021/11/24 13:29:38;;;;;;;13.52;9.07;;;20.30;41.10;;;;;;4990285;28;20578;-78
2021/11/24 13:32:14;;;;;;;12.65;8.52;;;20.40;40.60;;;;;;4990333;28;20050;-77
2021/11/24 13:34:43;;;;;;;13.45;8.82;;;20.60;40.40;;;;;;4990215;28;20137;-77
2021/11/24 13:37:11;;;;;;;13.77;9.18;;;21.10;39.70;;;;;;4988685;28;20073;-77
2021/11/24 13:39:39;;;;;;;13.30;8.38;;;21.80;39.00;;;;;;4988317;28;20131;-79
2021/11/24 13:42:16;;;;;;;11.98;7.95;;;22.40;37.60;;;;;;4988836;28;20133;-79
2021/11/24 13:44:53;;;;;;;11.38;7.30;;;23.00;36.60;;;;;;4989374;28;20144;-79
2021/11/24 13:47:28;;;;;;;10.55;6.90;;;23.50;35.80;;;;;;4975486;28;20046;-79
2021/11/24 13:49:58;;;;;;;11.20;7.82;;;24.00;34.90;;;;;;4988680;28;20073;-78
2021/11/24 13:52:29;;;;;;;12.80;8.00;;;24.60;34.10;;;;;;4989110;28;20046;-79
2021/11/24 13:54:59;;;;;;;12.57;8.20;;;25.20;33.30;;;;;;4988911;28;20519;-78
2021/11/24 13:57:29;;;;;;;10.55;7.85;;;25.60;33.00;;;;;;4989792;28;20479;-80
2021/11/24 14:00:04;;;;;;;11.57;7.93;;;25.90;32.70;;;;;;4988937;28;20046;-79
2021/11/24 14:02:33;;;;;;;12.48;8.07;;;25.90;32.50;;;;;;4989541;28;20114;-80
2021/11/24 14:05:10;;;;;;;11.80;8.32;;;25.80;32.20;;;;;;4989506;28;20062;-79
2021/11/24 14:07:39;;;;;;;11.50;8.40;;;25.60;32.30;;;;;;4989988;28;20042;-77
2021/11/24 14:10:13;;;;;;;12.23;8.63;;;25.30;32.20;;;;;;4988993;28;20377;-78
2021/11/24 14:12:41;;;;;;;11.43;7.57;;;25.00;32.50;;;;;;4990164;28;20137;-78
2021/11/24 14:15:11;;;;;;;11.93;8.02;;;24.80;32.50;;;;;;4992514;28;20138;-78
2021/11/24 14:17:47;;;;;;;11.20;8.20;;;24.60;32.80;;;;;;4993216;28;20053;-78
2021/11/24 14:20:36;;;;;;;12.30;8.50;;;24.00;32.90;;;;;;4993703;28;20135;-79
2021/11/24 14:23:06;;;;;;;13.48;9.40;;;22.40;33.90;;;;;;4992585;28;20141;-80
2021/11/24 14:25:39;;;;;;;13.27;8.70;;;20.60;36.10;;;;;;4992886;28;20137;-80
2021/11/24 14:28:10;;;;;;;12.90;8.15;;;18.90;37.40;;;;;;4990432;28;20161;-78
2021/11/24 14:30:40;;;;;;;13.85;8.93;;;17.30;39.20;;;;;;4993040;28;20547;-79
2021/11/24 14:33:09;;;;;;;15.48;9.50;;;15.90;41.30;;;;;;4995754;28;20050;-79
2021/11/24 14:35:36;;;;;;;14.32;8.93;;;14.60;43.20;;;;;;4994602;28;20489;-77
2021/11/24 14:38:05;;;;;;;14.70;8.95;;;13.50;45.40;;;;;;4975682;28;20160;-78
2021/11/24 14:40:34;;;;;;;16.55;9.88;;;12.60;47.20;;;;;;4992609;28;20042;-77
2021/11/24 14:43:04;;;;;;;19.20;10.55;;;11.80;49.10;;;;;;4991746;28;20601;-79
2021/11/24 14:45:32;;;;;;;16.40;9.65;;;11.10;50.50;;;;;;4992393;28;20133;-79
2021/11/24 14:48:00;;;;;;;19.10;10.10;;;10.40;52.00;;;;;;4992363;28;20058;-78
2021/11/24 14:50:29;;;;;;;19.55;10.38;;;9.80;53.70;;;;;;4992439;28;20054;-78
2021/11/24 14:52:58;;;;;;;19.58;11.02;;;9.30;55.10;;;;;;4991956;28;20042;-78
2021/11/24 14:55:26;;;;;;;19.63;10.88;;;8.80;56.50;;;;;;4991557;28;20137;-76
2021/11/24 14:57:55;;;;;;;19.92;11.57;;;8.40;57.70;;;;;;4991581;28;20060;-80
2021/11/24 15:00:27;;;;;;;22.33;12.40;;;8.00;58.80;;;;;;4992305;28;20426;-77
2021/11/24 15:02:54;;;;;;;22.00;12.15;;;7.70;60.00;;;;;;4992070;28;20112;-81
2021/11/24 15:05:21;;;;;;;21.52;12.30;;;7.40;61.20;;;;;;4992008;28;20050;-79
2021/11/24 15:07:50;;;;;;;22.00;12.27;;;7.10;62.30;;;;;;4991380;28;20211;-78
2021/11/24 15:10:22;;;;;;;23.88;13.10;;;6.80;63.10;;;;;;4991235;28;20253;-77
2021/11/24 15:12:50;;;;;;;25.63;13.63;;;6.60;64.30;;;;;;4992121;28;20134;-76
2021/11/24 15:15:17;;;;;;;25.38;13.43;;;6.40;65.30;;;;;;4991917;28;20042;-76
2021/11/24 15:17:45;;;;;;;27.00;14.20;;;6.20;66.50;;;;;;4991969;28;20089;-80
2021/11/24 15:20:12;;;;;;;25.45;14.05;;;6.00;67.80;;;;;;4991860;28;20078;-77
2021/11/24 15:22:40;;;;;;;25.33;14.15;;;5.80;69.00;;;;;;4991617;28;20490;-79
2021/11/24 15:25:10;;;;;;;26.15;14.20;;;5.70;70.60;;;;;;4985752;28;20101;-78
2021/11/24 15:27:39;;;;;;;28.55;14.63;;;5.50;72.40;;;;;;4987733;28;20134;-77
2021/11/24 15:30:08;;;;;;;26.63;14.55;;;5.40;74.80;;;;;;4987256;28;20050;-77
2021/11/24 15:32:36;;;;;;;28.48;14.50;;;5.20;77.30;;;;;;4992023;28;20057;-76
2021/11/24 15:35:04;;;;;;;29.95;14.95;;;5.10;80.10;;;;;;4986691;28;20046;-76
2021/11/24 15:37:31;;;;;;;26.25;13.95;;;5.00;83.10;;;;;;4991008;28;20507;-78
2021/11/24 15:39:58;;;;;;;26.60;14.25;;;4.90;85.70;;;;;;4991274;28;20562;-77
2021/11/24 15:42:26;;;;;;;28.88;14.25;;;4.80;88.60;;;;;;4991911;28;20141;-76
2021/11/24 15:44:54;;;;;;;29.30;13.73;;;4.70;90.70;;;;;;4989770;28;20069;-77
2021/11/24 15:47:24;;;;;;;27.33;13.90;;;4.60;91.10;;;;;;4989074;28;20133;-75
2021/11/24 15:49:51;;;;;;;26.88;13.73;;;4.60;91.50;;;;;;4991878;28;20051;-79
2021/11/24 15:52:19;;;;;;;24.63;13.07;;;4.50;91.80;;;;;;4990694;28;20050;-76
2021/11/24 15:54:46;;;;;;;26.63;13.82;;;4.40;91.90;;;;;;4991103;28;20108;-79
2021/11/24 15:57:14;;;;;;;25.95;13.02;;;4.40;92.20;;;;;;4988628;28;20157;-78
2021/11/24 15:59:44;;;;;;;27.67;13.55;;;4.30;92.50;;;;;;4990051;28;20131;-78
2021/11/24 16:02:12;;;;;;;29.90;12.88;;;4.20;92.80;;;;;;4990184;28;20042;-77
2021/11/24 16:04:39;;;;;;;23.40;12.90;;;4.20;93.00;;;;;;4990871;28;20385;-78
2021/11/24 16:07:06;;;;;;;26.05;13.07;;;4.20;93.30;;;;;;4989478;28;20136;-76
2021/11/24 16:09:33;;;;;;;28.30;13.15;;;4.10;93.40;;;;;;4990975;28;20042;-77
2021/11/24 16:12:00;;;;;;;25.77;12.75;;;4.10;93.60;;;;;;4988525;28;20136;-78
2021/11/24 16:14:27;;;;;;;24.17;12.75;;;4.00;93.70;;;;;;4990630;28;20577;-79
2021/11/24 16:16:57;;;;;;;26.23;13.82;;;4.00;93.90;;;;;;4990564;28;20137;-78
2021/11/24 16:19:24;;;;;;;24.33;12.63;;;4.00;94.20;;;;;;4991002;28;20054;-76
2021/11/24 16:21:51;;;;;;;25.58;12.55;;;4.00;94.30;;;;;;4990581;28;20109;-78
2021/11/24 16:24:18;;;;;;;26.42;12.75;;;3.90;94.60;;;;;;4990811;28;20050;-78
2021/11/24 16:26:46;;;;;;;27.08;12.68;;;3.90;94.80;;;;;;4988833;28;20078;-78
2021/11/24 16:29:13;;;;;;;23.95;12.18;;;3.80;94.70;;;;;;4982969;28;20042;-76
2021/11/24 16:31:40;;;;;;;24.45;12.10;;;3.80;94.80;;;;;;4985690;28;20104;-75
2021/11/24 16:34:08;;;;;;;25.00;12.38;;;3.80;94.90;;;;;;4986671;28;20050;-76
2021/11/24 16:36:35;;;;;;;23.45;10.70;;;3.80;95.10;;;;;;4988893;28;20189;-76
2021/11/24 16:39:03;;;;;;;22.35;11.60;;;3.70;95.20;;;;;;4988945;28;20157;-75
2021/11/24 16:41:31;;;;;;;22.75;11.18;;;3.70;95.30;;;;;;4989225;28;20473;-75
2021/11/24 16:44:00;;;;;;;21.95;11.23;;;3.70;95.50;;;;;;4989399;28;20432;-74
2021/11/24 16:46:27;;;;;;;23.02;11.43;;;3.70;95.60;;;;;;4989098;28;20112;-75
2021/11/24 16:48:54;;;;;;;23.65;11.43;;;3.70;95.60;;;;;;4970016;28;20189;-77
2021/11/24 16:51:23;;;;;;;22.00;10.95;;;3.70;95.60;;;;;;4969428;28;20074;-75
2021/11/24 16:53:51;;;;;;;21.48;10.32;;;3.60;95.80;;;;;;4970664;28;20161;-75
2021/11/24 16:56:18;;;;;;;21.25;10.27;;;3.60;95.90;;;;;;4988572;28;20097;-75
2021/11/24 16:58:45;;;;;;;22.83;11.07;;;3.60;96.10;;;;;;4989009;28;20050;-75
2021/11/24 17:01:12;;;;;;;22.83;11.35;;;3.60;96.20;;;;;;4987937;28;20129;-76
2021/11/24 17:03:39;;;;;;;21.98;11.07;;;3.60;96.20;;;;;;4986390;28;20060;-75
2021/11/24 17:06:06;;;;;;;24.35;11.88;;;3.60;96.30;;;;;;4987765;28;20065;-76
2021/11/24 17:08:36;;;;;;;23.90;11.43;;;3.60;96.40;;;;;;4988084;28;20133;-76
2021/11/24 17:11:04;;;;;;;21.33;10.60;;;3.60;96.50;;;;;;4988029;28;20046;-75
2021/11/24 17:13:31;;;;;;;21.63;11.18;;;3.50;96.50;;;;;;4988803;28;20129;-76
2021/11/24 17:15:59;;;;;;;22.63;11.18;;;3.60;96.60;;;;;;4988628;28;20061;-78
2021/11/24 17:18:26;;;;;;;20.90;10.57;;;3.60;96.70;;;;;;4987892;28;20060;-78
2021/11/24 17:20:54;;;;;;;23.50;11.00;;;3.60;96.70;;;;;;4988412;28;20124;-77
2021/11/24 17:23:21;;;;;;;24.15;11.30;;;3.60;96.70;;;;;;4987554;28;20066;-75
2021/11/24 17:25:50;;;;;;;21.95;11.35;;;3.60;96.70;;;;;;4987780;28;20070;-77
2021/11/24 17:28:21;;;;;;;22.23;10.90;;;3.60;96.70;;;;;;4986874;28;20042;-74
2021/11/24 17:30:50;;;;;;;22.38;10.80;;;3.60;96.80;;;;;;4980414;28;20497;-75
2021/11/24 17:33:17;;;;;;;23.88;10.63;;;3.50;96.80;;;;;;4988328;28;20129;-76
2021/11/24 17:35:46;;;;;;;22.67;10.80;;;3.50;96.90;;;;;;4987890;28;20050;-75
2021/11/24 17:38:13;;;;;;;22.17;11.15;;;3.50;97.10;;;;;;4987080;28;20050;-76
2021/11/24 17:40:40;;;;;;;29.52;13.60;;;3.50;97.10;;;;;;4987720;28;20105;-76
2021/11/24 17:43:09;;;;;;;24.27;11.85;;;3.50;97.10;;;;;;4987211;28;20134;-75
2021/11/24 17:45:36;;;;;;;22.10;11.32;;;3.50;97.20;;;;;;4987081;28;20472;-76
2021/11/24 17:48:04;;;;;;;20.58;10.57;;;3.50;97.20;;;;;;4986687;28;20384;-77
2021/11/24 17:50:33;;;;;;;21.15;10.88;;;3.50;97.20;;;;;;4991639;28;20123;-75
2021/11/24 17:53:00;;;;;;;21.30;10.77;;;3.60;97.30;;;;;;4991394;28;20557;-75
2021/11/24 17:55:28;;;;;;;23.17;11.93;;;3.50;97.20;;;;;;4977760;28;20137;-75
2021/11/24 17:57:58;;;;;;;24.90;12.32;;;3.50;97.30;;;;;;4989618;28;20142;-76
2021/11/24 18:00:28;;;;;;;21.92;11.15;;;3.50;97.30;;;;;;4991571;28;20085;-77
2021/11/24 18:02:55;;;;;;;24.95;12.13;;;3.50;97.30;;;;;;4990993;28;20050;-75
2021/11/24 18:05:22;;;;;;;26.25;11.30;;;3.50;97.40;;;;;;4990614;28;20057;-78
2021/11/24 18:07:50;;;;;;;22.95;11.23;;;3.60;97.50;;;;;;4995301;28;20125;-78
2021/11/24 18:10:17;;;;;;;22.48;11.30;;;3.50;97.50;;;;;;4992338;28;20088;-76
2021/11/24 18:12:44;;;;;;;24.02;11.70;;;3.50;97.50;;;;;;4990787;28;20082;-77
2021/11/24 18:15:12;;;;;;;24.20;11.00;;;3.50;97.50;;;;;;4991137;28;20053;-78
2021/11/24 18:17:42;;;;;;;23.73;10.73;;;3.50;97.60;;;;;;4991521;28;20056;-76
2021/11/24 18:20:11;;;;;;;22.88;10.82;;;3.50;97.60;;;;;;4991346;28;20046;-77
2021/11/24 18:22:39;;;;;;;21.58;10.90;;;3.60;97.70;;;;;;4990816;28;20046;-77
2021/11/24 18:25:07;;;;;;;23.30;11.52;;;3.60;97.70;;;;;;4989393;28;20492;-76
2021/11/24 18:27:35;;;;;;;22.77;10.85;;;3.50;97.70;;;;;;4991370;28;20142;-75
2021/11/24 18:30:03;;;;;;;21.38;10.50;;;3.60;97.70;;;;;;4990372;28;20058;-75
2021/11/24 18:32:30;;;;;;;23.15;11.40;;;3.50;97.80;;;;;;4990704;28;20082;-76
2021/11/24 18:34:58;;;;;;;22.50;11.05;;;3.50;98.00;;;;;;4990536;28;20138;-76
2021/11/24 18:37:25;;;;;;;21.50;10.02;;;3.60;98.30;;;;;;4991060;28;20129;-76
2021/11/24 18:39:52;;;;;;;21.83;10.23;;;3.60;98.20;;;;;;4991243;28;20132;-78
2021/11/24 18:42:19;;;;;;;22.38;11.10;;;3.60;98.20;;;;;;4990227;28;20138;-78
2021/11/24 18:44:47;;;;;;;22.58;11.07;;;3.60;98.30;;;;;;4991140;28;20556;-78